sensor_id;sensor_type;location;lat;lon;timestamp;P1;durP1;ratioP1;P2;durP2;ratioP2
61617;SDS011;47518;51.776;9.370;2023-06-26T00:00:11;9.80;;;8.70;;
61617;SDS011;47518;51.776;9.370;2023-06-26T00:02:37;10.75;;;9.27;;
61617;SDS011;47518;51.776;9.370;2023-06-26T00:05:03;9.38;;;8.48;;
61617;SDS011;47518;51.776;9.370;2023-06-26T00:07:29;9.80;;;8.70;;
61617;SDS011;47518;51.776;9.370;2023-06-26T00:09:55;9.15;;;8.20;;
61617;SDS011;47518;51.776;9.370;2023-06-26T00:12:22;9.68;;;8.90;;
61617;SDS011;47518;51.776;9.370;2023-06-26T00:14:47;11.88;;;8.70;;
61617;SDS011;47518;51.776;9.370;2023-06-26T00:17:12;9.32;;;8.40;;
61617;SDS011;47518;51.776;9.370;2023-06-26T00:19:38;10.68;;;8.77;;
61617;SDS011;47518;51.776;9.370;2023-06-26T00:22:03;9.63;;;8.73;;
61617;SDS011;47518;51.776;9.370;2023-06-26T00:24:28;13.70;;;9.10;;
61617;SDS011;47518;51.776;9.370;2023-06-26T00:26:54;9.55;;;8.75;;
61617;SDS011;47518;51.776;9.370;2023-06-26T00:29:19;9.90;;;8.90;;
61617;SDS011;47518;51.776;9.370;2023-06-26T00:31:44;9.40;;;8.50;;
61617;SDS011;47518;51.776;9.370;2023-06-26T00:34:10;9.73;;;8.75;;
61617;SDS011;47518;51.776;9.370;2023-06-26T00:36:35;9.55;;;8.75;;
61617;SDS011;47518;51.776;9.370;2023-06-26T00:39:03;10.05;;;9.00;;
61617;SDS011;47518;51.776;9.370;2023-06-26T00:41:29;10.20;;;9.10;;
61617;SDS011;47518;51.776;9.370;2023-06-26T00:43:54;11.80;;;8.80;;
61617;SDS011;47518;51.776;9.370;2023-06-26T00:46:20;9.70;;;8.80;;
61617;SDS011;47518;51.776;9.370;2023-06-26T00:48:46;12.30;;;9.00;;
61617;SDS011;47518;51.776;9.370;2023-06-26T00:51:13;9.68;;;8.88;;
61617;SDS011;47518;51.776;9.370;2023-06-26T00:53:39;10.43;;;8.60;;
61617;SDS011;47518;51.776;9.370;2023-06-26T00:56:05;16.67;;;8.63;;
61617;SDS011;47518;51.776;9.370;2023-06-26T00:58:31;11.93;;;8.45;;
61617;SDS011;47518;51.776;9.370;2023-06-26T01:00:57;9.85;;;8.95;;
61617;SDS011;47518;51.776;9.370;2023-06-26T01:03:23;10.02;;;8.77;;
61617;SDS011;47518;51.776;9.370;2023-06-26T01:05:50;9.48;;;8.68;;
61617;SDS011;47518;51.776;9.370;2023-06-26T01:08:19;11.00;;;9.00;;
61617;SDS011;47518;51.776;9.370;2023-06-26T01:10:45;9.27;;;8.48;;
61617;SDS011;47518;51.776;9.370;2023-06-26T01:13:12;9.55;;;8.52;;
61617;SDS011;47518;51.776;9.370;2023-06-26T01:15:38;9.63;;;8.70;;
61617;SDS011;47518;51.776;9.370;2023-06-26T01:18:06;11.50;;;8.90;;
61617;SDS011;47518;51.776;9.370;2023-06-26T01:20:32;10.60;;;8.43;;
61617;SDS011;47518;51.776;9.370;2023-06-26T01:23:18;9.05;;;8.13;;
61617;SDS011;47518;51.776;9.370;2023-06-26T01:26:21;9.60;;;8.70;;
61617;SDS011;47518;51.776;9.370;2023-06-26T01:28:51;9.55;;;8.65;;
61617;SDS011;47518;51.776;9.370;2023-06-26T01:31:19;9.60;;;8.65;;
61617;SDS011;47518;51.776;9.370;2023-06-26T01:33:44;9.45;;;8.60;;
61617;SDS011;47518;51.776;9.370;2023-06-26T01:36:19;12.15;;;8.57;;
61617;SDS011;47518;51.776;9.370;2023-06-26T01:38:45;9.25;;;8.45;;
61617;SDS011;47518;51.776;9.370;2023-06-26T01:41:10;9.90;;;9.00;;
61617;SDS011;47518;51.776;9.370;2023-06-26T01:43:40;11.07;;;8.82;;
61617;SDS011;47518;51.776;9.370;2023-06-26T01:46:25;10.15;;;9.10;;
61617;SDS011;47518;51.776;9.370;2023-06-26T01:49:08;9.50;;;8.60;;
61617;SDS011;47518;51.776;9.370;2023-06-26T01:51:42;12.50;;;8.98;;
61617;SDS011;47518;51.776;9.370;2023-06-26T01:54:31;11.10;;;8.50;;
61617;SDS011;47518;51.776;9.370;2023-06-26T01:57:02;10.75;;;8.68;;
61617;SDS011;47518;51.776;9.370;2023-06-26T01:59:31;11.38;;;8.73;;
61617;SDS011;47518;51.776;9.370;2023-06-26T02:01:58;9.88;;;8.95;;
61617;SDS011;47518;51.776;9.370;2023-06-26T02:04:26;9.88;;;8.98;;
61617;SDS011;47518;51.776;9.370;2023-06-26T02:06:51;11.07;;;8.63;;
61617;SDS011;47518;51.776;9.370;2023-06-26T02:09:17;13.40;;;9.38;;
61617;SDS011;47518;51.776;9.370;2023-06-26T02:11:42;14.82;;;9.15;;
61617;SDS011;47518;51.776;9.370;2023-06-26T02:14:08;10.50;;;9.30;;
61617;SDS011;47518;51.776;9.370;2023-06-26T02:16:36;10.05;;;9.05;;
61617;SDS011;47518;51.776;9.370;2023-06-26T02:19:01;10.15;;;8.52;;
61617;SDS011;47518;51.776;9.370;2023-06-26T02:21:29;12.25;;;8.48;;
61617;SDS011;47518;51.776;9.370;2023-06-26T02:23:58;9.68;;;8.88;;
61617;SDS011;47518;51.776;9.370;2023-06-26T02:26:23;11.32;;;8.85;;
61617;SDS011;47518;51.776;9.370;2023-06-26T02:28:48;11.23;;;9.13;;
61617;SDS011;47518;51.776;9.370;2023-06-26T02:31:13;10.40;;;8.85;;
61617;SDS011;47518;51.776;9.370;2023-06-26T02:33:39;11.75;;;8.90;;
61617;SDS011;47518;51.776;9.370;2023-06-26T02:36:07;9.73;;;8.82;;
61617;SDS011;47518;51.776;9.370;2023-06-26T02:38:32;10.02;;;8.88;;
61617;SDS011;47518;51.776;9.370;2023-06-26T02:40:57;13.68;;;8.93;;
61617;SDS011;47518;51.776;9.370;2023-06-26T02:43:25;11.18;;;8.85;;
61617;SDS011;47518;51.776;9.370;2023-06-26T02:45:51;11.32;;;8.50;;
61617;SDS011;47518;51.776;9.370;2023-06-26T02:48:16;12.10;;;8.90;;
61617;SDS011;47518;51.776;9.370;2023-06-26T02:50:42;10.02;;;8.52;;
61617;SDS011;47518;51.776;9.370;2023-06-26T02:53:11;20.50;;;9.35;;
61617;SDS011;47518;51.776;9.370;2023-06-26T02:55:37;9.63;;;8.80;;
61617;SDS011;47518;51.776;9.370;2023-06-26T02:58:02;10.68;;;8.98;;
61617;SDS011;47518;51.776;9.370;2023-06-26T03:00:28;11.25;;;8.40;;
61617;SDS011;47518;51.776;9.370;2023-06-26T03:02:54;11.43;;;8.63;;
61617;SDS011;47518;51.776;9.370;2023-06-26T03:05:20;9.98;;;8.95;;
61617;SDS011;47518;51.776;9.370;2023-06-26T03:07:46;11.55;;;8.65;;
61617;SDS011;47518;51.776;9.370;2023-06-26T03:10:11;10.20;;;8.90;;
61617;SDS011;47518;51.776;9.370;2023-06-26T03:12:36;10.23;;;9.25;;
61617;SDS011;47518;51.776;9.370;2023-06-26T03:15:02;9.95;;;8.90;;
61617;SDS011;47518;51.776;9.370;2023-06-26T03:17:28;9.30;;;8.38;;
61617;SDS011;47518;51.776;9.370;2023-06-26T03:19:59;9.80;;;8.85;;
61617;SDS011;47518;51.776;9.370;2023-06-26T03:24:59;9.47;;;8.50;;
61617;SDS011;47518;51.776;9.370;2023-06-26T03:27:24;11.65;;;8.85;;
61617;SDS011;47518;51.776;9.370;2023-06-26T03:29:51;12.05;;;9.32;;
61617;SDS011;47518;51.776;9.370;2023-06-26T03:32:17;10.15;;;8.93;;
61617;SDS011;47518;51.776;9.370;2023-06-26T03:34:42;10.18;;;8.88;;
61617;SDS011;47518;51.776;9.370;2023-06-26T03:37:08;12.52;;;8.90;;
61617;SDS011;47518;51.776;9.370;2023-06-26T03:39:36;15.73;;;9.30;;
61617;SDS011;47518;51.776;9.370;2023-06-26T03:42:01;9.98;;;8.82;;
61617;SDS011;47518;51.776;9.370;2023-06-26T03:44:27;13.45;;;8.95;;
61617;SDS011;47518;51.776;9.370;2023-06-26T03:46:53;15.90;;;9.10;;
61617;SDS011;47518;51.776;9.370;2023-06-26T03:49:18;13.10;;;9.30;;
61617;SDS011;47518;51.776;9.370;2023-06-26T03:51:44;10.85;;;9.25;;
61617;SDS011;47518;51.776;9.370;2023-06-26T03:54:10;12.98;;;8.90;;
61617;SDS011;47518;51.776;9.370;2023-06-26T03:56:35;12.35;;;9.18;;
61617;SDS011;47518;51.776;9.370;2023-06-26T03:59:01;10.27;;;8.80;;
61617;SDS011;47518;51.776;9.370;2023-06-26T04:01:26;11.20;;;8.75;;
61617;SDS011;47518;51.776;9.370;2023-06-26T04:04:01;10.65;;;8.77;;
61617;SDS011;47518;51.776;9.370;2023-06-26T04:06:30;10.90;;;8.55;;
61617;SDS011;47518;51.776;9.370;2023-06-26T04:08:56;11.27;;;8.32;;
61617;SDS011;47518;51.776;9.370;2023-06-26T04:11:22;12.40;;;8.57;;
61617;SDS011;47518;51.776;9.370;2023-06-26T04:13:47;11.23;;;9.00;;
61617;SDS011;47518;51.776;9.370;2023-06-26T04:16:13;10.60;;;9.07;;
61617;SDS011;47518;51.776;9.370;2023-06-26T04:18:38;12.38;;;9.73;;
61617;SDS011;47518;51.776;9.370;2023-06-26T04:21:04;12.40;;;9.80;;
61617;SDS011;47518;51.776;9.370;2023-06-26T04:23:48;13.75;;;9.63;;
61617;SDS011;47518;51.776;9.370;2023-06-26T04:26:13;10.27;;;9.23;;
61617;SDS011;47518;51.776;9.370;2023-06-26T04:28:42;14.43;;;9.43;;
61617;SDS011;47518;51.776;9.370;2023-06-26T04:31:08;11.80;;;9.15;;
61617;SDS011;47518;51.776;9.370;2023-06-26T04:33:34;9.95;;;8.88;;
61617;SDS011;47518;51.776;9.370;2023-06-26T04:36:03;9.73;;;8.73;;
61617;SDS011;47518;51.776;9.370;2023-06-26T04:38:28;10.88;;;8.98;;
61617;SDS011;47518;51.776;9.370;2023-06-26T04:40:55;14.13;;;9.00;;
61617;SDS011;47518;51.776;9.370;2023-06-26T04:43:20;9.98;;;8.98;;
61617;SDS011;47518;51.776;9.370;2023-06-26T04:45:45;9.32;;;8.43;;
61617;SDS011;47518;51.776;9.370;2023-06-26T04:48:11;9.05;;;8.20;;
61617;SDS011;47518;51.776;9.370;2023-06-26T04:50:39;11.05;;;8.45;;
61617;SDS011;47518;51.776;9.370;2023-06-26T04:53:05;12.13;;;8.52;;
61617;SDS011;47518;51.776;9.370;2023-06-26T04:55:30;12.88;;;8.43;;
61617;SDS011;47518;51.776;9.370;2023-06-26T04:57:56;9.07;;;7.90;;
61617;SDS011;47518;51.776;9.370;2023-06-26T05:00:21;8.43;;;7.63;;
61617;SDS011;47518;51.776;9.370;2023-06-26T05:02:50;8.38;;;7.57;;
61617;SDS011;47518;51.776;9.370;2023-06-26T05:05:26;8.75;;;7.95;;
61617;SDS011;47518;51.776;9.370;2023-06-26T05:07:53;8.65;;;7.72;;
61617;SDS011;47518;51.776;9.370;2023-06-26T05:10:19;7.63;;;7.03;;
61617;SDS011;47518;51.776;9.370;2023-06-26T05:12:45;7.80;;;7.10;;
61617;SDS011;47518;51.776;9.370;2023-06-26T05:15:10;8.85;;;7.97;;
61617;SDS011;47518;51.776;9.370;2023-06-26T05:17:36;8.02;;;7.32;;
61617;SDS011;47518;51.776;9.370;2023-06-26T05:20:01;8.90;;;7.57;;
61617;SDS011;47518;51.776;9.370;2023-06-26T05:22:28;9.93;;;7.90;;
61617;SDS011;47518;51.776;9.370;2023-06-26T05:24:54;8.40;;;7.55;;
61617;SDS011;47518;51.776;9.370;2023-06-26T05:27:21;8.75;;;7.95;;
61617;SDS011;47518;51.776;9.370;2023-06-26T05:29:49;8.50;;;7.80;;
61617;SDS011;47518;51.776;9.370;2023-06-26T05:32:16;8.25;;;7.40;;
61617;SDS011;47518;51.776;9.370;2023-06-26T05:34:46;8.30;;;7.70;;
61617;SDS011;47518;51.776;9.370;2023-06-26T05:37:22;8.52;;;7.72;;
61617;SDS011;47518;51.776;9.370;2023-06-26T05:39:48;8.38;;;7.68;;
61617;SDS011;47518;51.776;9.370;2023-06-26T05:42:14;8.43;;;7.45;;
61617;SDS011;47518;51.776;9.370;2023-06-26T05:44:40;8.45;;;7.68;;
61617;SDS011;47518;51.776;9.370;2023-06-26T05:47:05;8.65;;;7.55;;
61617;SDS011;47518;51.776;9.370;2023-06-26T05:49:34;8.23;;;7.43;;
61617;SDS011;47518;51.776;9.370;2023-06-26T05:51:59;8.77;;;7.97;;
61617;SDS011;47518;51.776;9.370;2023-06-26T05:54:25;8.40;;;7.70;;
61617;SDS011;47518;51.776;9.370;2023-06-26T05:56:52;8.25;;;7.55;;
61617;SDS011;47518;51.776;9.370;2023-06-26T06:01:47;9.05;;;8.20;;
61617;SDS011;47518;51.776;9.370;2023-06-26T06:04:13;8.25;;;7.60;;
61617;SDS011;47518;51.776;9.370;2023-06-26T06:06:38;9.25;;;7.82;;
61617;SDS011;47518;51.776;9.370;2023-06-26T06:09:03;8.82;;;7.90;;
61617;SDS011;47518;51.776;9.370;2023-06-26T06:23:51;9.10;;;8.40;;
61617;SDS011;47518;51.776;9.370;2023-06-26T06:26:16;9.15;;;7.95;;
61617;SDS011;47518;51.776;9.370;2023-06-26T06:28:42;9.07;;;8.20;;
61617;SDS011;47518;51.776;9.370;2023-06-26T06:31:07;8.38;;;7.57;;
61617;SDS011;47518;51.776;9.370;2023-06-26T06:33:32;8.50;;;7.78;;
61617;SDS011;47518;51.776;9.370;2023-06-26T06:35:57;9.10;;;8.30;;
61617;SDS011;47518;51.776;9.370;2023-06-26T06:38:23;11.63;;;9.48;;
61617;SDS011;47518;51.776;9.370;2023-06-26T06:40:48;8.18;;;7.47;;
61617;SDS011;47518;51.776;9.370;2023-06-26T06:43:14;8.30;;;7.57;;
61617;SDS011;47518;51.776;9.370;2023-06-26T06:45:39;8.00;;;7.40;;
61617;SDS011;47518;51.776;9.370;2023-06-26T06:48:04;10.23;;;8.20;;
61617;SDS011;47518;51.776;9.370;2023-06-26T06:50:30;8.57;;;7.78;;
61617;SDS011;47518;51.776;9.370;2023-06-26T06:52:56;8.70;;;7.90;;
61617;SDS011;47518;51.776;9.370;2023-06-26T06:55:21;8.80;;;8.07;;
61617;SDS011;47518;51.776;9.370;2023-06-26T06:57:47;9.07;;;8.25;;
61617;SDS011;47518;51.776;9.370;2023-06-26T07:00:12;9.45;;;8.50;;
61617;SDS011;47518;51.776;9.370;2023-06-26T07:02:40;8.65;;;7.88;;
61617;SDS011;47518;51.776;9.370;2023-06-26T07:05:06;8.52;;;7.68;;
61617;SDS011;47518;51.776;9.370;2023-06-26T07:07:32;8.27;;;7.57;;
61617;SDS011;47518;51.776;9.370;2023-06-26T07:09:59;8.95;;;8.10;;
61617;SDS011;47518;51.776;9.370;2023-06-26T07:12:26;8.48;;;7.78;;
61617;SDS011;47518;51.776;9.370;2023-06-26T07:14:51;10.23;;;8.30;;
61617;SDS011;47518;51.776;9.370;2023-06-26T07:17:16;9.88;;;7.40;;
61617;SDS011;47518;51.776;9.370;2023-06-26T07:19:42;8.60;;;7.80;;
61617;SDS011;47518;51.776;9.370;2023-06-26T07:22:10;8.65;;;7.68;;
61617;SDS011;47518;51.776;9.370;2023-06-26T07:24:36;9.18;;;8.27;;
61617;SDS011;47518;51.776;9.370;2023-06-26T07:27:01;9.85;;;8.15;;
61617;SDS011;47518;51.776;9.370;2023-06-26T07:29:26;9.88;;;8.05;;
61617;SDS011;47518;51.776;9.370;2023-06-26T07:31:52;9.25;;;8.20;;
61617;SDS011;47518;51.776;9.370;2023-06-26T07:34:17;8.98;;;8.18;;
61617;SDS011;47518;51.776;9.370;2023-06-26T07:36:42;11.13;;;7.75;;
61617;SDS011;47518;51.776;9.370;2023-06-26T07:39:08;9.18;;;8.27;;
61617;SDS011;47518;51.776;9.370;2023-06-26T07:41:33;8.63;;;7.90;;
61617;SDS011;47518;51.776;9.370;2023-06-26T07:43:58;8.48;;;7.68;;
61617;SDS011;47518;51.776;9.370;2023-06-26T07:46:24;10.88;;;8.00;;
61617;SDS011;47518;51.776;9.370;2023-06-26T07:48:50;9.18;;;8.18;;
61617;SDS011;47518;51.776;9.370;2023-06-26T07:51:15;9.13;;;8.32;;
61617;SDS011;47518;51.776;9.370;2023-06-26T07:53:40;9.05;;;8.25;;
61617;SDS011;47518;51.776;9.370;2023-06-26T07:56:06;10.57;;;8.32;;
61617;SDS011;47518;51.776;9.370;2023-06-26T07:58:31;8.95;;;8.07;;
61617;SDS011;47518;51.776;9.370;2023-06-26T08:00:56;9.00;;;8.13;;
61617;SDS011;47518;51.776;9.370;2023-06-26T08:03:22;9.50;;;8.52;;
61617;SDS011;47518;51.776;9.370;2023-06-26T08:05:48;9.30;;;8.30;;
61617;SDS011;47518;51.776;9.370;2023-06-26T08:08:14;9.45;;;8.55;;
61617;SDS011;47518;51.776;9.370;2023-06-26T08:10:39;9.23;;;8.43;;
61617;SDS011;47518;51.776;9.370;2023-06-26T08:13:04;9.23;;;8.32;;
61617;SDS011;47518;51.776;9.370;2023-06-26T08:15:30;9.02;;;8.23;;
61617;SDS011;47518;51.776;9.370;2023-06-26T08:17:55;9.27;;;8.48;;
61617;SDS011;47518;51.776;9.370;2023-06-26T08:20:20;9.23;;;7.97;;
61617;SDS011;47518;51.776;9.370;2023-06-26T08:22:47;10.35;;;8.30;;
61617;SDS011;47518;51.776;9.370;2023-06-26T08:25:14;9.50;;;8.23;;
61617;SDS011;47518;51.776;9.370;2023-06-26T08:27:39;9.45;;;8.13;;
61617;SDS011;47518;51.776;9.370;2023-06-26T08:30:05;10.07;;;8.68;;
61617;SDS011;47518;51.776;9.370;2023-06-26T08:32:31;9.65;;;8.30;;
61617;SDS011;47518;51.776;9.370;2023-06-26T08:34:56;9.00;;;8.20;;
61617;SDS011;47518;51.776;9.370;2023-06-26T08:37:21;9.15;;;8.10;;
61617;SDS011;47518;51.776;9.370;2023-06-26T08:39:47;8.95;;;8.00;;
61617;SDS011;47518;51.776;9.370;2023-06-26T08:42:13;8.85;;;8.00;;
61617;SDS011;47518;51.776;9.370;2023-06-26T08:44:39;9.38;;;7.72;;
61617;SDS011;47518;51.776;9.370;2023-06-26T08:47:05;9.38;;;7.80;;
61617;SDS011;47518;51.776;9.370;2023-06-26T08:49:47;7.53;;;6.82;;
61617;SDS011;47518;51.776;9.370;2023-06-26T08:52:28;8.77;;;6.95;;
61617;SDS011;47518;51.776;9.370;2023-06-26T08:54:58;10.23;;;7.43;;
61617;SDS011;47518;51.776;9.370;2023-06-26T08:57:26;8.30;;;7.50;;
61617;SDS011;47518;51.776;9.370;2023-06-26T08:59:53;11.32;;;7.55;;
61617;SDS011;47518;51.776;9.370;2023-06-26T09:02:19;8.35;;;7.45;;
61617;SDS011;47518;51.776;9.370;2023-06-26T09:04:46;8.95;;;8.00;;
61617;SDS011;47518;51.776;9.370;2023-06-26T09:07:12;10.18;;;7.55;;
61617;SDS011;47518;51.776;9.370;2023-06-26T09:09:38;9.80;;;8.00;;
61617;SDS011;47518;51.776;9.370;2023-06-26T09:12:03;8.27;;;7.53;;
61617;SDS011;47518;51.776;9.370;2023-06-26T09:14:29;14.05;;;7.65;;
61617;SDS011;47518;51.776;9.370;2023-06-26T09:16:55;8.80;;;8.00;;
61617;SDS011;47518;51.776;9.370;2023-06-26T09:19:20;8.88;;;7.63;;
61617;SDS011;47518;51.776;9.370;2023-06-26T09:21:46;9.90;;;7.88;;
61617;SDS011;47518;51.776;9.370;2023-06-26T09:24:14;8.98;;;8.05;;
61617;SDS011;47518;51.776;9.370;2023-06-26T09:26:41;13.23;;;8.20;;
61617;SDS011;47518;51.776;9.370;2023-06-26T09:29:06;8.70;;;7.70;;
61617;SDS011;47518;51.776;9.370;2023-06-26T09:31:33;10.77;;;8.18;;
61617;SDS011;47518;51.776;9.370;2023-06-26T09:34:01;8.57;;;7.65;;
61617;SDS011;47518;51.776;9.370;2023-06-26T09:36:27;9.75;;;7.72;;
61617;SDS011;47518;51.776;9.370;2023-06-26T09:38:57;8.60;;;7.80;;
61617;SDS011;47518;51.776;9.370;2023-06-26T09:41:24;8.60;;;7.80;;
61617;SDS011;47518;51.776;9.370;2023-06-26T09:43:50;9.43;;;8.15;;
61617;SDS011;47518;51.776;9.370;2023-06-26T09:46:16;9.25;;;8.30;;
61617;SDS011;47518;51.776;9.370;2023-06-26T09:48:49;9.82;;;7.95;;
61617;SDS011;47518;51.776;9.370;2023-06-26T09:51:16;9.80;;;8.80;;
61617;SDS011;47518;51.776;9.370;2023-06-26T09:53:42;12.25;;;8.52;;
61617;SDS011;47518;51.776;9.370;2023-06-26T09:56:11;10.55;;;8.68;;
61617;SDS011;47518;51.776;9.370;2023-06-26T09:58:42;11.38;;;9.10;;
61617;SDS011;47518;51.776;9.370;2023-06-26T10:01:08;12.60;;;9.75;;
61617;SDS011;47518;51.776;9.370;2023-06-26T10:03:35;12.95;;;8.95;;
61617;SDS011;47518;51.776;9.370;2023-06-26T10:06:01;10.55;;;9.55;;
61617;SDS011;47518;51.776;9.370;2023-06-26T10:08:28;11.15;;;9.32;;
61617;SDS011;47518;51.776;9.370;2023-06-26T10:10:54;13.95;;;9.48;;
61617;SDS011;47518;51.776;9.370;2023-06-26T10:13:22;10.27;;;9.10;;
61617;SDS011;47518;51.776;9.370;2023-06-26T10:15:50;12.00;;;9.48;;
61617;SDS011;47518;51.776;9.370;2023-06-26T10:18:17;10.55;;;9.50;;
61617;SDS011;47518;51.776;9.370;2023-06-26T10:20:45;12.35;;;10.30;;
61617;SDS011;47518;51.776;9.370;2023-06-26T10:23:13;11.52;;;9.88;;
61617;SDS011;47518;51.776;9.370;2023-06-26T10:25:42;10.45;;;9.38;;
61617;SDS011;47518;51.776;9.370;2023-06-26T10:28:11;15.15;;;9.68;;
61617;SDS011;47518;51.776;9.370;2023-06-26T10:30:37;11.98;;;9.40;;
61617;SDS011;47518;51.776;9.370;2023-06-26T10:33:04;14.50;;;10.13;;
61617;SDS011;47518;51.776;9.370;2023-06-26T10:35:32;11.48;;;10.40;;
61617;SDS011;47518;51.776;9.370;2023-06-26T10:38:01;12.25;;;10.45;;
61617;SDS011;47518;51.776;9.370;2023-06-26T10:40:47;13.63;;;10.88;;
61617;SDS011;47518;51.776;9.370;2023-06-26T10:43:15;11.70;;;10.50;;
61617;SDS011;47518;51.776;9.370;2023-06-26T10:45:44;13.63;;;12.23;;
61617;SDS011;47518;51.776;9.370;2023-06-26T10:48:12;13.65;;;11.70;;
61617;SDS011;47518;51.776;9.370;2023-06-26T10:50:39;14.82;;;12.18;;
61617;SDS011;47518;51.776;9.370;2023-06-26T10:53:08;15.70;;;11.95;;
61617;SDS011;47518;51.776;9.370;2023-06-26T10:55:55;15.73;;;12.50;;
61617;SDS011;47518;51.776;9.370;2023-06-26T10:58:40;13.77;;;11.45;;
61617;SDS011;47518;51.776;9.370;2023-06-26T11:01:14;12.55;;;11.23;;
61617;SDS011;47518;51.776;9.370;2023-06-26T11:03:46;12.75;;;10.35;;
61617;SDS011;47518;51.776;9.370;2023-06-26T11:06:40;16.38;;;10.30;;
61617;SDS011;47518;51.776;9.370;2023-06-26T11:09:07;13.00;;;10.30;;
61617;SDS011;47518;51.776;9.370;2023-06-26T11:24:59;12.35;;;9.25;;
61617;SDS011;47518;51.776;9.370;2023-06-26T11:27:30;10.40;;;8.80;;
61617;SDS011;47518;51.776;9.370;2023-06-26T11:30:04;10.30;;;9.15;;
61617;SDS011;47518;51.776;9.370;2023-06-26T11:32:32;13.20;;;8.70;;
61617;SDS011;47518;51.776;9.370;2023-06-26T11:35:00;11.35;;;8.57;;
61617;SDS011;47518;51.776;9.370;2023-06-26T11:37:27;11.05;;;8.80;;
61617;SDS011;47518;51.776;9.370;2023-06-26T11:39:53;10.50;;;8.70;;
61617;SDS011;47518;51.776;9.370;2023-06-26T11:42:20;13.10;;;8.63;;
61617;SDS011;47518;51.776;9.370;2023-06-26T11:44:46;13.82;;;7.53;;
61617;SDS011;47518;51.776;9.370;2023-06-26T11:47:12;13.27;;;8.63;;
61617;SDS011;47518;51.776;9.370;2023-06-26T11:49:43;9.40;;;8.07;;
61617;SDS011;47518;51.776;9.370;2023-06-26T11:52:09;9.88;;;8.40;;
61617;SDS011;47518;51.776;9.370;2023-06-26T11:54:35;8.68;;;7.78;;
61617;SDS011;47518;51.776;9.370;2023-06-26T11:57:00;10.10;;;7.80;;
61617;SDS011;47518;51.776;9.370;2023-06-26T11:59:34;8.90;;;8.00;;
61617;SDS011;47518;51.776;9.370;2023-06-26T12:02:07;10.10;;;7.70;;
61617;SDS011;47518;51.776;9.370;2023-06-26T12:04:35;11.05;;;7.85;;
61617;SDS011;47518;51.776;9.370;2023-06-26T12:07:02;9.75;;;8.05;;
61617;SDS011;47518;51.776;9.370;2023-06-26T12:09:30;11.00;;;7.25;;
61617;SDS011;47518;51.776;9.370;2023-06-26T12:12:03;10.32;;;7.65;;
61617;SDS011;47518;51.776;9.370;2023-06-26T12:16:56;12.02;;;7.80;;
61617;SDS011;47518;51.776;9.370;2023-06-26T12:19:29;11.18;;;7.55;;
61617;SDS011;47518;51.776;9.370;2023-06-26T12:21:54;10.20;;;7.88;;
61617;SDS011;47518;51.776;9.370;2023-06-26T12:24:22;9.43;;;8.00;;
61617;SDS011;47518;51.776;9.370;2023-06-26T12:26:50;10.23;;;7.80;;
61617;SDS011;47518;51.776;9.370;2023-06-26T12:29:19;9.32;;;7.72;;
61617;SDS011;47518;51.776;9.370;2023-06-26T12:31:48;13.30;;;6.82;;
61617;SDS011;47518;51.776;9.370;2023-06-26T12:34:15;7.43;;;6.72;;
61617;SDS011;47518;51.776;9.370;2023-06-26T12:36:43;7.05;;;6.43;;
61617;SDS011;47518;51.776;9.370;2023-06-26T12:39:10;8.45;;;6.47;;
61617;SDS011;47518;51.776;9.370;2023-06-26T12:41:44;7.75;;;6.53;;
61617;SDS011;47518;51.776;9.370;2023-06-26T12:44:27;8.93;;;6.50;;
61617;SDS011;47518;51.776;9.370;2023-06-26T12:46:55;6.90;;;6.20;;
61617;SDS011;47518;51.776;9.370;2023-06-26T12:49:38;9.38;;;6.95;;
61617;SDS011;47518;51.776;9.370;2023-06-26T12:52:05;11.88;;;6.70;;
61617;SDS011;47518;51.776;9.370;2023-06-26T12:54:38;8.70;;;6.75;;
61617;SDS011;47518;51.776;9.370;2023-06-26T12:57:05;10.05;;;7.18;;
61617;SDS011;47518;51.776;9.370;2023-06-26T12:59:31;8.80;;;6.70;;
61617;SDS011;47518;51.776;9.370;2023-06-26T13:01:58;8.88;;;6.55;;
61617;SDS011;47518;51.776;9.370;2023-06-26T13:04:24;7.07;;;6.20;;
61617;SDS011;47518;51.776;9.370;2023-06-26T13:06:51;9.05;;;6.03;;
61617;SDS011;47518;51.776;9.370;2023-06-26T13:09:19;8.18;;;6.20;;
61617;SDS011;47518;51.776;9.370;2023-06-26T13:11:47;9.23;;;6.10;;
61617;SDS011;47518;51.776;9.370;2023-06-26T13:14:13;7.05;;;5.68;;
61617;SDS011;47518;51.776;9.370;2023-06-26T13:16:39;8.80;;;5.53;;
61617;SDS011;47518;51.776;9.370;2023-06-26T13:19:04;7.82;;;5.60;;
61617;SDS011;47518;51.776;9.370;2023-06-26T13:21:30;6.63;;;5.20;;
61617;SDS011;47518;51.776;9.370;2023-06-26T13:23:57;6.07;;;5.05;;
61617;SDS011;47518;51.776;9.370;2023-06-26T13:26:26;6.00;;;5.40;;
61617;SDS011;47518;51.776;9.370;2023-06-26T13:28:54;6.05;;;5.07;;
61617;SDS011;47518;51.776;9.370;2023-06-26T13:31:20;5.50;;;4.97;;
61617;SDS011;47518;51.776;9.370;2023-06-26T13:33:45;5.85;;;5.18;;
61617;SDS011;47518;51.776;9.370;2023-06-26T13:36:13;6.00;;;4.93;;
61617;SDS011;47518;51.776;9.370;2023-06-26T13:38:40;8.00;;;5.03;;
61617;SDS011;47518;51.776;9.370;2023-06-26T13:41:05;6.57;;;4.82;;
61617;SDS011;47518;51.776;9.370;2023-06-26T13:43:31;8.18;;;4.72;;
61617;SDS011;47518;51.776;9.370;2023-06-26T13:45:56;5.55;;;4.70;;
61617;SDS011;47518;51.776;9.370;2023-06-26T13:48:24;7.22;;;4.85;;
61617;SDS011;47518;51.776;9.370;2023-06-26T13:50:51;9.57;;;5.03;;
61617;SDS011;47518;51.776;9.370;2023-06-26T13:53:17;7.28;;;4.60;;
61617;SDS011;47518;51.776;9.370;2023-06-26T13:55:42;11.65;;;4.82;;
61617;SDS011;47518;51.776;9.370;2023-06-26T13:58:08;6.85;;;4.97;;
61617;SDS011;47518;51.776;9.370;2023-06-26T14:00:34;6.72;;;4.70;;
61617;SDS011;47518;51.776;9.370;2023-06-26T14:03:00;6.30;;;4.80;;
61617;SDS011;47518;51.776;9.370;2023-06-26T14:05:27;7.35;;;4.70;;
61617;SDS011;47518;51.776;9.370;2023-06-26T14:07:53;5.63;;;4.53;;
61617;SDS011;47518;51.776;9.370;2023-06-26T14:10:19;6.75;;;4.32;;
61617;SDS011;47518;51.776;9.370;2023-06-26T14:12:46;9.23;;;4.30;;
61617;SDS011;47518;51.776;9.370;2023-06-26T14:15:12;6.15;;;4.40;;
61617;SDS011;47518;51.776;9.370;2023-06-26T14:17:37;5.15;;;4.40;;
61617;SDS011;47518;51.776;9.370;2023-06-26T14:20:05;5.72;;;4.40;;
61617;SDS011;47518;51.776;9.370;2023-06-26T14:22:34;5.20;;;4.70;;
61617;SDS011;47518;51.776;9.370;2023-06-26T14:24:59;4.93;;;4.43;;
61617;SDS011;47518;51.776;9.370;2023-06-26T14:27:24;7.28;;;4.13;;
61617;SDS011;47518;51.776;9.370;2023-06-26T14:29:49;5.00;;;4.15;;
61617;SDS011;47518;51.776;9.370;2023-06-26T14:32:15;7.38;;;4.20;;
61617;SDS011;47518;51.776;9.370;2023-06-26T14:34:40;6.43;;;4.18;;
61617;SDS011;47518;51.776;9.370;2023-06-26T14:37:06;4.78;;;4.03;;
61617;SDS011;47518;51.776;9.370;2023-06-26T14:39:32;5.45;;;4.18;;
61617;SDS011;47518;51.776;9.370;2023-06-26T14:41:57;4.50;;;4.10;;
61617;SDS011;47518;51.776;9.370;2023-06-26T14:44:23;7.03;;;4.30;;
61617;SDS011;47518;51.776;9.370;2023-06-26T14:46:48;6.90;;;4.15;;
61617;SDS011;47518;51.776;9.370;2023-06-26T14:49:14;4.65;;;4.15;;
61617;SDS011;47518;51.776;9.370;2023-06-26T14:51:40;4.55;;;4.15;;
61617;SDS011;47518;51.776;9.370;2023-06-26T14:54:05;4.72;;;4.25;;
61617;SDS011;47518;51.776;9.370;2023-06-26T14:56:31;5.65;;;4.43;;
61617;SDS011;47518;51.776;9.370;2023-06-26T14:58:56;4.57;;;4.20;;
61617;SDS011;47518;51.776;9.370;2023-06-26T15:01:21;4.50;;;4.10;;
61617;SDS011;47518;51.776;9.370;2023-06-26T15:03:47;7.05;;;4.07;;
61617;SDS011;47518;51.776;9.370;2023-06-26T15:06:13;6.03;;;4.43;;
61617;SDS011;47518;51.776;9.370;2023-06-26T15:08:38;4.85;;;4.20;;
61617;SDS011;47518;51.776;9.370;2023-06-26T15:11:06;4.95;;;4.38;;
61617;SDS011;47518;51.776;9.370;2023-06-26T15:13:32;6.88;;;4.50;;